Terminal Aerodrome Forecast
Issued by NWS Mt. Holly, NJ

Home | Current Version | Previous Version | Text Only | Print | Product List | Glossary On
Versions: 1 2 3 4 5 6 7 8 9 10 11 12 13 14 15 16 17 18 19 20 21 22 23
000
FTUS41 KPHI 281130
TAFRDG
TAF
KRDG 281130Z 2812/2912 VRB03KT 4SM BR BKN004
      TEMPO 2812/2813 SCT004
     FM281300 VRB03KT P6SM SCT030
     FM281600 25004KT P6SM SCT035
     FM282100 20006KT P6SM SCT040
     FM290100 VRB02KT P6SM FEW035 SCT250
     FM290800 00000KT 4SM BR FEW030=

USA.gov is the U.S. government's official web portal to all federal, state and local government web resources and services.